TRA91Y EHRD-EGSS
Flight info
| Callsign | TRA91Y |
|---|---|
| Flight time | 0h 40m |
| Altitude | 22000 |
| Route | ABNED L980 XAMAN |
| Aircraft | B738/M-SDE2E3FGHIJ1RWXYZ/LB1 |
Departure
| Time | 2026-05-04 18:32 |
|---|---|
| Airport | Rotterdam The Hague Airport (EHRD) |
Arrival
| Time | 2026-05-04 19:13 |
|---|---|
| Airport | London Stansted Airport (EGSS) |
| Time | Latitude | Longitude | Altitude | Speed | Heading |
|---|---|---|---|---|---|
| 2026-05-04 18:13 | 51.94994 | 4.43447 | 0 ft | 0 kts | 326° |
| 2026-05-04 18:26 | 51.94996 | 4.43445 | 0 ft | 2 kts | 326° |
| 2026-05-04 18:26 | 51.95027 | 4.43433 | 0 ft | 8 kts | 8° |
| 2026-05-04 18:27 | 51.95073 | 4.43524 | 1 ft | 13 kts | 59° |
| 2026-05-04 18:27 | 51.95113 | 4.43611 | 0 ft | 9 kts | 33° |
| 2026-05-04 18:27 | 51.95171 | 4.43580 | 0 ft | 9 kts | 328° |
| 2026-05-04 18:27 | 51.95224 | 4.43527 | 0 ft | 9 kts | 328° |
| 2026-05-04 18:28 | 51.95279 | 4.43505 | 0 ft | 9 kts | 34° |
| 2026-05-04 18:28 | 51.95317 | 4.43582 | 0 ft | 9 kts | 56° |
| 2026-05-04 18:28 | 51.95351 | 4.43665 | 0 ft | 9 kts | 56° |
| 2026-05-04 18:28 | 51.95387 | 4.43753 | 0 ft | 10 kts | 56° |
| 2026-05-04 18:29 | 51.95428 | 4.43856 | 0 ft | 12 kts | 57° |
| 2026-05-04 18:29 | 51.95477 | 4.43976 | 0 ft | 14 kts | 56° |
| 2026-05-04 18:29 | 51.95531 | 4.44114 | 0 ft | 15 kts | 57° |
| 2026-05-04 18:29 | 51.95593 | 4.44267 | 1 ft | 18 kts | 56° |
| 2026-05-04 18:30 | 51.95764 | 4.44693 | 0 ft | 27 kts | 57° |
| 2026-05-04 18:30 | 51.95870 | 4.44965 | 0 ft | 26 kts | 57° |
| 2026-05-04 18:30 | 51.95972 | 4.45215 | 0 ft | 26 kts | 58° |
| 2026-05-04 18:31 | 51.96064 | 4.45453 | 0 ft | 20 kts | 57° |
| 2026-05-04 18:31 | 51.96128 | 4.45604 | 1 ft | 14 kts | 45° |
| 2026-05-04 18:31 | 51.96214 | 4.45600 | 0 ft | 14 kts | 315° |
| 2026-05-04 18:31 | 51.96252 | 4.45472 | -1 ft | 13 kts | 268° |
| 2026-05-04 18:32 | 51.96212 | 4.45342 | 1 ft | 13 kts | 236° |
| 2026-05-04 18:32 | 51.96068 | 4.44978 | 1 ft | 82 kts | 238° |
| 2026-05-04 18:32 | 51.95599 | 4.43769 | 2 ft | 168 kts | 243° |
| 2026-05-04 18:32 | 51.94890 | 4.42021 | 654 ft | 193 kts | 238° |
| 2026-05-04 18:33 | 51.94288 | 4.40073 | 1752 ft | 187 kts | 264° |
| 2026-05-04 18:33 | 51.94497 | 4.37987 | 2527 ft | 192 kts | 302° |
| 2026-05-04 18:33 | 51.95164 | 4.35990 | 2970 ft | 217 kts | 297° |
| 2026-05-04 18:33 | 51.95794 | 4.33680 | 2988 ft | 225 kts | 296° |
| 2026-05-04 18:34 | 51.96217 | 4.31211 | 3051 ft | 243 kts | 270° |
| 2026-05-04 18:34 | 51.95921 | 4.28473 | 3728 ft | 244 kts | 259° |
| 2026-05-04 18:34 | 51.95601 | 4.25726 | 4441 ft | 247 kts | 261° |
| 2026-05-04 18:34 | 51.95315 | 4.22968 | 5155 ft | 250 kts | 262° |
| 2026-05-04 18:35 | 51.95053 | 4.20214 | 5976 ft | 252 kts | 262° |
| 2026-05-04 18:35 | 51.94802 | 4.17406 | 6907 ft | 251 kts | 262° |
| 2026-05-04 18:35 | 51.94556 | 4.14591 | 7756 ft | 254 kts | 262° |
| 2026-05-04 18:35 | 51.94309 | 4.11734 | 8580 ft | 258 kts | 262° |
| 2026-05-04 18:36 | 51.94059 | 4.08836 | 9429 ft | 261 kts | 261° |
| 2026-05-04 18:36 | 51.93785 | 4.05899 | 10224 ft | 265 kts | 261° |
| 2026-05-04 18:36 | 51.93487 | 4.02832 | 10569 ft | 289 kts | 261° |
| 2026-05-04 18:36 | 51.93163 | 3.99510 | 10772 ft | 314 kts | 261° |
| 2026-05-04 18:37 | 51.92806 | 3.95850 | 11060 ft | 335 kts | 261° |
| 2026-05-04 18:37 | 51.92438 | 3.92074 | 11715 ft | 343 kts | 261° |
| 2026-05-04 18:37 | 51.92064 | 3.88239 | 12542 ft | 345 kts | 261° |
| 2026-05-04 18:37 | 51.91686 | 3.84390 | 13405 ft | 348 kts | 262° |
| 2026-05-04 18:38 | 51.91304 | 3.80496 | 14099 ft | 353 kts | 262° |
| 2026-05-04 18:38 | 51.90915 | 3.76558 | 14807 ft | 356 kts | 262° |
| 2026-05-04 18:38 | 51.90522 | 3.72583 | 15527 ft | 359 kts | 261° |
| 2026-05-04 18:38 | 51.90124 | 3.68578 | 16217 ft | 363 kts | 261° |
| 2026-05-04 18:39 | 51.89720 | 3.64524 | 16926 ft | 365 kts | 261° |
| 2026-05-04 18:39 | 51.89312 | 3.60451 | 17629 ft | 369 kts | 261° |
| 2026-05-04 18:39 | 51.88901 | 3.56352 | 18436 ft | 367 kts | 261° |
| 2026-05-04 18:39 | 51.88493 | 3.52305 | 19357 ft | 360 kts | 261° |
| 2026-05-04 18:40 | 51.88091 | 3.48341 | 20228 ft | 356 kts | 260° |
| 2026-05-04 18:40 | 51.87694 | 3.44426 | 21158 ft | 348 kts | 260° |
| 2026-05-04 18:40 | 51.87301 | 3.40575 | 21780 ft | 347 kts | 260° |
| 2026-05-04 18:40 | 51.86909 | 3.36734 | 22018 ft | 348 kts | 260° |
| 2026-05-04 18:41 | 51.86509 | 3.32822 | 22006 ft | 354 kts | 260° |
| 2026-05-04 18:41 | 51.86106 | 3.28893 | 22011 ft | 354 kts | 260° |
| 2026-05-04 18:41 | 51.85705 | 3.24989 | 22005 ft | 349 kts | 260° |
| 2026-05-04 18:41 | 51.85306 | 3.21136 | 22010 ft | 346 kts | 259° |
| 2026-05-04 18:42 | 51.84908 | 3.17307 | 22009 ft | 346 kts | 260° |
| 2026-05-04 18:42 | 51.84685 | 3.14735 | 22021 ft | 350 kts | 262° |
| 2026-05-04 18:42 | 51.84421 | 3.10807 | 22012 ft | 353 kts | 264° |
| 2026-05-04 18:42 | 51.84185 | 3.06848 | 22017 ft | 353 kts | 264° |
| 2026-05-04 18:43 | 51.83951 | 3.02904 | 22013 ft | 352 kts | 264° |
| 2026-05-04 18:43 | 51.83713 | 2.98991 | 22008 ft | 347 kts | 263° |
| 2026-05-04 18:43 | 51.83470 | 2.95119 | 21999 ft | 347 kts | 263° |
| 2026-05-04 18:43 | 51.83220 | 2.91218 | 22009 ft | 351 kts | 263° |
| 2026-05-04 18:44 | 51.82965 | 2.87287 | 22013 ft | 352 kts | 263° |
| 2026-05-04 18:44 | 51.82793 | 2.84676 | 22017 ft | 353 kts | 262° |
| 2026-05-04 18:44 | 51.82446 | 2.79405 | 22014 ft | 353 kts | 262° |
| 2026-05-04 18:44 | 51.82186 | 2.75470 | 22008 ft | 352 kts | 262° |
| 2026-05-04 18:45 | 51.81923 | 2.71545 | 22012 ft | 351 kts | 262° |
| 2026-05-04 18:45 | 51.81659 | 2.67627 | 22003 ft | 351 kts | 263° |
| 2026-05-04 18:45 | 51.81393 | 2.63708 | 22015 ft | 350 kts | 262° |
| 2026-05-04 18:45 | 51.81124 | 2.59804 | 22010 ft | 350 kts | 262° |
| 2026-05-04 18:46 | 51.80854 | 2.55902 | 22010 ft | 349 kts | 262° |
| 2026-05-04 18:46 | 51.80584 | 2.52002 | 22008 ft | 349 kts | 262° |
| 2026-05-04 18:46 | 51.80312 | 2.48103 | 22011 ft | 350 kts | 262° |
| 2026-05-04 18:46 | 51.80040 | 2.44194 | 22017 ft | 350 kts | 262° |
| 2026-05-04 18:47 | 51.79766 | 2.40279 | 22020 ft | 351 kts | 262° |
| 2026-05-04 18:47 | 51.79492 | 2.36364 | 22025 ft | 351 kts | 262° |
| 2026-05-04 18:47 | 51.79215 | 2.32446 | 22013 ft | 351 kts | 262° |
| 2026-05-04 18:47 | 51.78935 | 2.28526 | 22015 ft | 352 kts | 262° |
| 2026-05-04 18:48 | 51.78697 | 2.24601 | 21998 ft | 353 kts | 269° |
| 2026-05-04 18:48 | 51.79097 | 2.20697 | 21897 ft | 354 kts | 286° |
| 2026-05-04 18:48 | 51.80162 | 2.17069 | 21384 ft | 358 kts | 296° |
| 2026-05-04 18:48 | 51.81369 | 2.13560 | 20942 ft | 357 kts | 297° |
| 2026-05-04 18:49 | 51.82574 | 2.10067 | 20534 ft | 354 kts | 297° |
| 2026-05-04 18:49 | 51.83760 | 2.06593 | 20121 ft | 352 kts | 296° |
| 2026-05-04 18:49 | 51.84929 | 2.03135 | 19717 ft | 350 kts | 295° |
| 2026-05-04 18:49 | 51.86081 | 1.99684 | 19306 ft | 348 kts | 295° |
| 2026-05-04 18:50 | 51.87219 | 1.96246 | 18913 ft | 344 kts | 296° |
| 2026-05-04 18:50 | 51.88345 | 1.92865 | 18526 ft | 338 kts | 295° |
| 2026-05-04 18:50 | 51.89450 | 1.89539 | 18119 ft | 333 kts | 295° |
| 2026-05-04 18:50 | 51.90525 | 1.86286 | 17780 ft | 325 kts | 295° |
| 2026-05-04 18:51 | 51.91574 | 1.83112 | 17468 ft | 317 kts | 295° |
| 2026-05-04 18:51 | 51.92587 | 1.80046 | 17190 ft | 312 kts | 295° |
| 2026-05-04 18:51 | 51.93601 | 1.76973 | 16931 ft | 308 kts | 295° |
| 2026-05-04 18:51 | 51.94602 | 1.73938 | 16679 ft | 305 kts | 296° |
| 2026-05-04 18:52 | 51.95606 | 1.70885 | 16416 ft | 308 kts | 296° |
| 2026-05-04 18:52 | 51.96634 | 1.67756 | 16148 ft | 311 kts | 296° |
| 2026-05-04 18:52 | 51.97637 | 1.64704 | 15880 ft | 309 kts | 296° |
| 2026-05-04 18:52 | 51.98645 | 1.61633 | 15591 ft | 306 kts | 296° |
| 2026-05-04 18:53 | 51.99643 | 1.58590 | 15322 ft | 304 kts | 296° |
| 2026-05-04 18:53 | 52.00628 | 1.55582 | 15053 ft | 302 kts | 297° |
| 2026-05-04 18:53 | 52.01613 | 1.52570 | 14809 ft | 302 kts | 297° |
| 2026-05-04 18:53 | 52.02603 | 1.49539 | 14547 ft | 304 kts | 297° |
| 2026-05-04 18:54 | 52.03592 | 1.46506 | 14290 ft | 305 kts | 297° |
| 2026-05-04 18:54 | 52.04583 | 1.43466 | 14024 ft | 305 kts | 296° |
| 2026-05-04 18:54 | 52.05566 | 1.40447 | 13738 ft | 301 kts | 296° |
| 2026-05-04 18:54 | 52.06544 | 1.37441 | 13457 ft | 297 kts | 296° |
| 2026-05-04 18:55 | 52.07501 | 1.34497 | 13179 ft | 293 kts | 296° |
| 2026-05-04 18:55 | 52.09376 | 1.28715 | 12658 ft | 287 kts | 296° |
| 2026-05-04 18:55 | 52.10304 | 1.25846 | 12408 ft | 287 kts | 296° |
| 2026-05-04 18:56 | 52.11209 | 1.22964 | 12144 ft | 287 kts | 291° |
| 2026-05-04 18:56 | 52.11541 | 1.19816 | 11924 ft | 285 kts | 268° |
| 2026-05-04 18:56 | 52.11257 | 1.16624 | 11743 ft | 285 kts | 257° |
| 2026-05-04 18:56 | 52.10751 | 1.13494 | 11517 ft | 286 kts | 254° |
| 2026-05-04 18:57 | 52.10200 | 1.10380 | 11329 ft | 286 kts | 254° |
| 2026-05-04 18:57 | 52.09732 | 1.07746 | 11151 ft | 286 kts | 254° |
| 2026-05-04 18:57 | 52.09186 | 1.04633 | 10957 ft | 286 kts | 254° |
| 2026-05-04 18:57 | 52.08661 | 1.01593 | 10754 ft | 284 kts | 255° |
| 2026-05-04 18:58 | 52.08137 | 0.98514 | 10553 ft | 283 kts | 256° |
| 2026-05-04 18:58 | 52.07632 | 0.95476 | 10352 ft | 282 kts | 255° |
| 2026-05-04 18:58 | 52.07118 | 0.92412 | 10154 ft | 278 kts | 255° |
| 2026-05-04 18:58 | 52.06612 | 0.89409 | 9965 ft | 273 kts | 255° |
| 2026-05-04 18:59 | 52.06115 | 0.86463 | 9751 ft | 269 kts | 256° |
| 2026-05-04 18:59 | 52.05625 | 0.83560 | 9551 ft | 264 kts | 256° |
| 2026-05-04 18:59 | 52.05140 | 0.80695 | 9363 ft | 264 kts | 255° |
| 2026-05-04 18:59 | 52.04651 | 0.77803 | 9183 ft | 265 kts | 256° |
| 2026-05-04 19:00 | 52.04162 | 0.74918 | 8967 ft | 266 kts | 256° |
| 2026-05-04 19:00 | 52.03669 | 0.72015 | 8795 ft | 267 kts | 256° |
| 2026-05-04 19:00 | 52.03177 | 0.69106 | 8605 ft | 267 kts | 256° |
| 2026-05-04 19:00 | 52.02695 | 0.66210 | 8361 ft | 265 kts | 256° |
| 2026-05-04 19:01 | 52.02130 | 0.63376 | 8095 ft | 265 kts | 243° |
| 2026-05-04 19:01 | 52.00958 | 0.61092 | 7840 ft | 263 kts | 224° |
| 2026-05-04 19:01 | 51.99566 | 0.59178 | 7594 ft | 261 kts | 221° |
| 2026-05-04 19:01 | 51.98163 | 0.57321 | 7347 ft | 259 kts | 221° |
| 2026-05-04 19:02 | 51.96768 | 0.55495 | 7096 ft | 257 kts | 221° |
| 2026-05-04 19:02 | 51.95379 | 0.53684 | 6842 ft | 255 kts | 221° |
| 2026-05-04 19:02 | 51.94006 | 0.51903 | 6594 ft | 253 kts | 221° |
| 2026-05-04 19:02 | 51.92628 | 0.50127 | 6354 ft | 251 kts | 221° |
| 2026-05-04 19:03 | 51.91263 | 0.48373 | 6096 ft | 249 kts | 221° |
| 2026-05-04 19:03 | 51.89916 | 0.46621 | 5838 ft | 248 kts | 221° |
| 2026-05-04 19:03 | 51.88576 | 0.44879 | 5579 ft | 247 kts | 221° |
| 2026-05-04 19:03 | 51.87239 | 0.43141 | 5322 ft | 245 kts | 221° |
| 2026-05-04 19:04 | 51.85912 | 0.41432 | 5066 ft | 244 kts | 221° |
| 2026-05-04 19:04 | 51.84594 | 0.39718 | 4817 ft | 242 kts | 220° |
| 2026-05-04 19:04 | 51.83286 | 0.38003 | 4550 ft | 241 kts | 220° |
| 2026-05-04 19:04 | 51.81995 | 0.36293 | 4295 ft | 240 kts | 221° |
| 2026-05-04 19:05 | 51.80709 | 0.34572 | 4031 ft | 239 kts | 220° |
| 2026-05-04 19:05 | 51.79448 | 0.32868 | 3772 ft | 239 kts | 221° |
| 2026-05-04 19:05 | 51.78180 | 0.31132 | 3511 ft | 239 kts | 221° |
| 2026-05-04 19:05 | 51.77071 | 0.29163 | 3257 ft | 238 kts | 243° |
| 2026-05-04 19:06 | 51.76379 | 0.26763 | 3061 ft | 234 kts | 247° |
| 2026-05-04 19:06 | 51.75702 | 0.24431 | 3004 ft | 223 kts | 246° |
| 2026-05-04 19:06 | 51.75063 | 0.22231 | 2969 ft | 211 kts | 246° |
| 2026-05-04 19:06 | 51.74450 | 0.20136 | 3010 ft | 203 kts | 246° |
| 2026-05-04 19:07 | 51.73854 | 0.18119 | 2949 ft | 199 kts | 246° |
| 2026-05-04 19:07 | 51.73256 | 0.16099 | 2802 ft | 199 kts | 246° |
| 2026-05-04 19:07 | 51.72678 | 0.14072 | 2632 ft | 198 kts | 253° |
| 2026-05-04 19:07 | 51.72618 | 0.11910 | 2415 ft | 193 kts | 292° |
| 2026-05-04 19:08 | 51.73372 | 0.10275 | 2220 ft | 179 kts | 334° |
| 2026-05-04 19:08 | 51.74498 | 0.09522 | 2084 ft | 179 kts | 332° |
| 2026-05-04 19:08 | 51.75288 | 0.07966 | 2025 ft | 185 kts | 295° |
| 2026-05-04 19:08 | 51.75891 | 0.06186 | 1977 ft | 178 kts | 326° |
| 2026-05-04 19:09 | 51.77003 | 0.05687 | 2001 ft | 168 kts | 17° |
| 2026-05-04 19:09 | 51.77902 | 0.06801 | 2031 ft | 166 kts | 56° |
| 2026-05-04 19:09 | 51.78591 | 0.08228 | 1987 ft | 156 kts | 50° |
| 2026-05-04 19:09 | 51.79302 | 0.09526 | 2015 ft | 156 kts | 47° |
| 2026-05-04 19:10 | 51.80059 | 0.10749 | 2027 ft | 148 kts | 44° |
| 2026-05-04 19:10 | 51.80794 | 0.11876 | 2000 ft | 142 kts | 44° |
| 2026-05-04 19:10 | 51.81486 | 0.12924 | 1966 ft | 132 kts | 43° |
| 2026-05-04 19:10 | 51.82146 | 0.13919 | 1859 ft | 128 kts | 43° |
| 2026-05-04 19:11 | 51.82800 | 0.14905 | 1718 ft | 132 kts | 43° |
| 2026-05-04 19:11 | 51.83518 | 0.15921 | 1533 ft | 146 kts | 39° |
| 2026-05-04 19:11 | 51.84282 | 0.17089 | 1330 ft | 155 kts | 45° |
| 2026-05-04 19:11 | 51.85051 | 0.18293 | 1100 ft | 158 kts | 42° |
| 2026-05-04 19:12 | 51.85883 | 0.19542 | 832 ft | 159 kts | 41° |
| 2026-05-04 19:12 | 51.87446 | 0.21892 | 416 ft | 146 kts | 40° |
| 2026-05-04 19:12 | 51.88116 | 0.22923 | 334 ft | 129 kts | 36° |
| 2026-05-04 19:13 | 51.88720 | 0.23788 | 333 ft | 103 kts | 43° |
| 2026-05-04 19:13 | 51.89038 | 0.24269 | 337 ft | 38 kts | 43° |
| 2026-05-04 19:13 | 51.89185 | 0.24495 | 335 ft | 0 kts | 44° |
| 2026-05-04 19:14 | 51.89208 | 0.24529 | 335 ft | 10 kts | 43° |
| 2026-05-04 19:14 | 51.89245 | 0.24644 | 334 ft | 14 kts | 78° |
| 2026-05-04 19:14 | 51.89245 | 0.24697 | 336 ft | 0 kts | 98° |
| 2026-05-04 19:14 | 51.89245 | 0.24698 | 336 ft | 0 kts | 98° |
| 2026-05-04 19:15 | 51.89244 | 0.24704 | 335 ft | 2 kts | 102° |
| 2026-05-04 19:15 | 51.89243 | 0.24713 | 336 ft | 1 kts | 104° |
| 2026-05-04 19:15 | 51.89237 | 0.24736 | 337 ft | 5 kts | 120° |
| 2026-05-04 19:16 | 51.89201 | 0.24811 | 339 ft | 0 kts | 131° |
| 2026-05-04 19:17 | 51.89201 | 0.24812 | 339 ft | 0 kts | 131° |
| 2026-05-04 19:17 | 51.89200 | 0.24814 | 338 ft | 0 kts | 131° |
| 2026-05-04 19:18 | 51.89199 | 0.24817 | 338 ft | 0 kts | 131° |
| 2026-05-04 19:18 | 51.89188 | 0.24834 | 339 ft | 14 kts | 136° |
| 2026-05-04 19:18 | 51.89215 | 0.25053 | 345 ft | 17 kts | 50° |
| 2026-05-04 19:18 | 51.89238 | 0.25161 | 345 ft | 10 kts | 97° |
| 2026-05-04 19:19 | 51.89203 | 0.25248 | 350 ft | 6 kts | 131° |
| 2026-05-04 19:19 | 51.89199 | 0.25254 | 352 ft | 0 kts | 136° |
| 2026-05-04 19:19 | 51.89198 | 0.25254 | 352 ft | 1 kts | 147° |
| 2026-05-04 19:19 | 51.89187 | 0.25257 | 345 ft | 4 kts | 172° |
| 2026-05-04 19:20 | 51.89178 | 0.25257 | 344 ft | 0 kts | 184° |
| 2026-05-04 19:21 | 51.89177 | 0.25257 | 344 ft | 0 kts | 186° |
| 2026-05-04 19:21 | 51.89176 | 0.25256 | 351 ft | 0 kts | 189° |
| 2026-05-04 19:22 | 51.89175 | 0.25256 | 351 ft | 1 kts | 189° |
| 2026-05-04 19:22 | 51.89170 | 0.25253 | 349 ft | 1 kts | 199° |
| 2026-05-04 19:22 | 51.89119 | 0.25213 | 343 ft | 14 kts | 187° |
| 2026-05-04 19:22 | 51.89105 | 0.25215 | 342 ft | 1 kts | 168° |
| 2026-05-04 19:23 | 51.89079 | 0.25228 | 337 ft | 7 kts | 160° |
| 2026-05-04 19:23 | 51.89074 | 0.25232 | 337 ft | 0 kts | 159° |
| 2026-05-04 19:23 | 51.89072 | 0.25233 | 337 ft | 0 kts | 159° |